Time;durP1;ratioP1;P1;durP2;ratioP2;P2;SDS_P1;SDS_P2;PMS_P1;PMS_P2;Temp;Humidity;BMP_temperature;BMP_pressure;BME280_temperature;BME280_humidity;BME280_pressure;Samples;Min_cycle;Max_cycle;Signal;HPM_P1;HPM_P2
2023/03/11 00:01:06;;;;;;;27.75;13.50;;;;;;;4.21;83.16;98813.98;1744358;82;21023;-61
2023/03/11 00:03:35;;;;;;;32.50;14.15;;;;;;;4.19;83.19;98809.27;1744520;82;21039;-60
2023/03/11 00:06:07;;;;;;;30.40;13.72;;;;;;;4.15;83.16;98812.05;1744808;82;21091;-59
2023/03/11 00:08:37;;;;;;;26.42;12.85;;;;;;;4.12;83.25;98809.73;1744415;82;21052;-61
2023/03/11 00:11:09;;;;;;;30.08;13.22;;;;;;;4.07;83.33;98799.48;1744341;82;21023;-60
2023/03/11 00:13:40;;;;;;;32.28;13.78;;;;;;;4.06;83.48;98796.45;1744517;82;21055;-60
2023/03/11 00:16:11;;;;;;;29.95;13.00;;;;;;;4.07;83.57;98802.19;1744717;82;21015;-60
2023/03/11 00:18:42;;;;;;;28.85;12.13;;;;;;;4.06;83.66;98795.09;1744602;81;21063;-61
2023/03/11 00:21:15;;;;;;;27.02;12.93;;;;;;;4.07;83.77;98794.06;1744551;82;21056;-61
2023/03/11 00:23:45;;;;;;;30.02;12.95;;;;;;;4.09;83.82;98791.16;1744465;82;21023;-62
2023/03/11 00:26:14;;;;;;;29.18;13.65;;;;;;;4.10;83.84;98788.25;1744541;80;21008;-60
2023/03/11 00:28:43;;;;;;;32.88;13.00;;;;;;;4.11;83.80;98786.38;1744630;82;21032;-60
2023/03/11 00:31:15;;;;;;;24.90;11.68;;;;;;;4.12;83.75;98786.18;1744476;82;21031;-60
2023/03/11 00:33:47;;;;;;;27.95;11.83;;;;;;;4.13;83.67;98779.73;1744496;82;21068;-61
2023/03/11 00:36:30;;;;;;;28.00;13.72;;;;;;;4.12;83.63;98771.80;1744255;82;21063;-61
2023/03/11 00:39:00;;;;;;;26.95;12.37;;;;;;;4.09;83.48;98771.67;1744685;82;21075;-60
2023/03/11 00:41:31;;;;;;;27.40;12.45;;;;;;;4.05;83.55;98767.67;1744496;82;21052;-61
2023/03/11 00:44:00;;;;;;;28.60;12.25;;;;;;;4.06;83.72;98761.73;1744540;82;21020;-61
2023/03/11 00:46:31;;;;;;;29.25;12.82;;;;;;;4.07;83.67;98754.77;1744433;82;21103;-60
2023/03/11 00:49:00;;;;;;;22.85;11.83;;;;;;;4.05;83.55;98755.48;1744661;82;21012;-60
2023/03/11 00:51:29;;;;;;;24.67;11.88;;;;;;;4.04;83.55;98751.61;1744722;82;21028;-61
2023/03/11 00:54:01;;;;;;;28.73;11.88;;;;;;;4.01;83.62;98747.42;1744519;82;21035;-61
2023/03/11 00:56:32;;;;;;;25.25;11.28;;;;;;;4.01;83.66;98748.78;1744703;82;21024;-60
2023/03/11 00:59:02;;;;;;;23.52;11.65;;;;;;;3.99;83.68;98738.66;1744468;82;21059;-61
2023/03/11 01:01:33;;;;;;;25.70;11.73;;;;;;;3.97;83.75;98739.37;1744599;82;21092;-60
2023/03/11 01:04:04;;;;;;;26.33;12.03;;;;;;;3.98;83.79;98727.50;1744515;82;21027;-60
2023/03/11 01:06:36;;;;;;;23.70;11.40;;;;;;;3.96;83.73;98735.50;1744375;82;21055;-61
2023/03/11 01:09:07;;;;;;;19.92;10.05;;;;;;;3.95;83.79;98718.41;1743145;82;21060;-61
2023/03/11 01:11:35;;;;;;;24.23;11.20;;;;;;;3.96;83.79;98718.73;1744402;82;21071;-59
2023/03/11 01:14:05;;;;;;;23.10;10.75;;;;;;;3.96;83.76;98713.83;1744623;82;21071;-60
2023/03/11 01:16:35;;;;;;;22.50;11.30;;;;;;;3.93;83.76;98716.41;1744670;82;21020;-61
2023/03/11 01:19:06;;;;;;;24.00;10.30;;;;;;;3.92;83.77;98716.09;1744291;82;21051;-59
2023/03/11 01:21:37;;;;;;;21.82;10.30;;;;;;;3.91;83.82;98710.35;1744901;81;21505;-60
2023/03/11 01:24:08;;;;;;;21.57;10.15;;;;;;;3.88;83.81;98703.10;1744551;82;21035;-60
2023/03/11 01:26:39;;;;;;;23.98;10.45;;;;;;;3.85;83.90;98702.98;1744418;80;21486;-60
2023/03/11 01:29:08;;;;;;;24.70;10.72;;;;;;;3.85;83.99;98697.56;1744551;82;21452;-60
2023/03/11 01:31:38;;;;;;;20.82;9.93;;;;;;;3.87;83.97;98698.72;1744473;82;21028;-59
2023/03/11 01:34:08;;;;;;;18.55;9.48;;;;;;;3.85;83.95;98692.66;1709282;84;21032;-60
2023/03/11 01:36:39;;;;;;;20.97;9.05;;;;;;;3.86;83.96;98688.92;1744487;82;20984;-62
2023/03/11 01:39:08;;;;;;;20.37;9.05;;;;;;;3.85;83.97;98689.44;1744538;82;21008;-61
2023/03/11 01:41:38;;;;;;;21.55;10.45;;;;;;;3.87;84.07;98686.53;1709222;84;21076;-60
2023/03/11 01:44:13;;;;;;;19.52;9.48;;;;;;;3.85;84.01;98685.89;1747128;82;21023;-60
2023/03/11 01:46:58;;;;;;;21.37;9.90;;;;;;;3.84;84.09;98686.41;1709217;83;21032;-60
2023/03/11 01:49:32;;;;;;;18.42;9.08;;;;;;;3.84;84.00;98685.05;1747210;82;21052;-60
2023/03/11 01:52:06;;;;;;;18.62;8.65;;;;;;;3.80;84.05;98685.96;1681431;84;21044;-60
2023/03/11 01:54:39;;;;;;;19.60;8.65;;;;;;;3.81;84.18;98676.80;1744885;82;21476;-60
2023/03/11 01:57:11;;;;;;;15.58;8.08;;;;;;;3.81;84.17;98679.51;1709302;84;21035;-60
2023/03/11 01:59:49;;;;;;;20.37;9.43;;;;;;;3.82;84.23;98678.99;1744492;82;21020;-60
2023/03/11 02:02:33;;;;;;;17.37;8.80;;;;;;;3.81;84.21;98670.55;1744591;82;21087;-59
2023/03/11 02:05:04;;;;;;;19.48;9.10;;;;;;;3.81;84.19;98675.97;1744655;82;21019;-60
2023/03/11 02:07:35;;;;;;;16.23;8.40;;;;;;;3.78;84.16;98676.36;1744740;82;21023;-60
2023/03/11 02:10:08;;;;;;;20.45;9.23;;;;;;;3.72;84.24;98667.15;1716184;82;21063;-60
2023/03/11 02:12:37;;;;;;;18.15;8.50;;;;;;;3.70;84.30;98669.22;1682076;84;21103;-61
2023/03/11 02:15:09;;;;;;;18.02;8.70;;;;;;;3.69;84.42;98662.64;1747428;82;21059;-61
2023/03/11 02:17:40;;;;;;;15.43;7.67;;;;;;;3.69;84.47;98657.22;1747141;82;21080;-60
2023/03/11 02:20:15;;;;;;;16.97;8.98;;;;;;;3.70;84.49;98657.03;1709645;84;21067;-59
2023/03/11 02:22:44;;;;;;;15.32;8.33;;;;;;;3.69;84.50;98654.00;1744500;82;21095;-60
2023/03/11 02:25:32;;;;;;;17.90;8.68;;;;;;;3.70;84.59;98659.73;1709313;84;21068;-60
2023/03/11 02:28:04;;;;;;;17.17;8.70;;;;;;;3.69;84.60;98659.41;1775176;80;21075;-61
2023/03/11 02:30:33;;;;;;;18.55;8.65;;;;;;;3.70;84.63;98657.55;1775164;81;21016;-60
2023/03/11 02:33:06;;;;;;;20.25;8.13;;;;;;;3.69;84.67;98657.22;1775015;81;21070;-61
2023/03/11 02:35:36;;;;;;;17.00;7.95;;;;;;;3.70;84.69;98654.32;1775140;81;21027;-60
2023/03/11 02:38:05;;;;;;;14.78;7.25;;;;;;;3.71;84.72;98659.22;1775121;81;20992;-59
2023/03/11 02:40:47;;;;;;;18.70;8.43;;;;;;;3.73;84.75;98656.63;1775108;80;21083;-59
2023/03/11 02:43:21;;;;;;;17.07;8.35;;;;;;;3.74;84.75;98660.18;1767493;80;21428;-59
2023/03/11 02:45:50;;;;;;;15.70;8.00;;;;;;;3.76;84.71;98646.76;1775184;81;21071;-60
2023/03/11 02:48:26;;;;;;;16.65;7.97;;;;;;;3.77;84.66;98643.53;1775198;81;20991;-61
2023/03/11 02:50:56;;;;;;;16.70;8.08;;;;;;;3.78;84.60;98649.27;1777135;81;21047;-60
2023/03/11 02:53:28;;;;;;;14.87;7.95;;;;;;;3.77;84.58;98643.53;1778108;80;20987;-60
2023/03/11 02:55:57;;;;;;;18.42;8.25;;;;;;;3.79;84.58;98648.23;1777796;80;21056;-60
2023/03/11 02:58:26;;;;;;;15.38;7.75;;;;;;;3.80;84.56;98641.78;1777238;81;21067;-61
2023/03/11 03:00:55;;;;;;;13.83;7.87;;;;;;;3.81;84.53;98632.62;1775991;81;21016;-60
2023/03/11 03:03:25;;;;;;;13.20;7.37;;;;;;;3.81;84.45;98630.75;1775483;81;21012;-59
2023/03/11 03:05:55;;;;;;;15.15;7.50;;;;;;;3.81;84.45;98624.50;1775506;81;21415;-60
2023/03/11 03:08:28;;;;;;;15.13;7.70;;;;;;;3.78;84.48;98614.90;1775167;80;21083;-60
2023/03/11 03:10:58;;;;;;;16.07;7.15;;;;;;;3.80;84.44;98615.53;1775085;81;21573;-60
2023/03/11 03:13:31;;;;;;;14.95;7.58;;;;;;;3.80;84.41;98611.47;1774885;80;21071;-61
2023/03/11 03:15:59;;;;;;;16.02;7.53;;;;;;;3.81;84.37;98609.08;1753081;81;21524;-61
2023/03/11 03:18:30;;;;;;;15.98;8.23;;;;;;;3.81;84.30;98606.89;1775170;81;21028;-61
2023/03/11 03:20:59;;;;;;;15.85;7.70;;;;;;;3.81;84.31;98599.60;1753334;81;21114;-60
2023/03/11 03:23:36;;;;;;;14.85;8.08;;;;;;;3.82;84.26;98604.50;1775156;81;21048;-62
2023/03/11 03:26:05;;;;;;;17.77;8.68;;;;;;;3.81;84.23;98596.89;1761724;80;21063;-60
2023/03/11 03:28:38;;;;;;;17.37;8.28;;;;;;;3.80;84.16;98599.28;1744543;82;21094;-60
2023/03/11 03:31:09;;;;;;;17.60;8.75;;;;;;;3.79;84.20;98598.13;1744482;82;21032;-60
2023/03/11 03:33:41;;;;;;;16.45;8.38;;;;;;;3.77;84.22;98596.14;1715701;82;21048;-61
2023/03/11 03:36:12;;;;;;;17.75;8.25;;;;;;;3.76;84.18;98591.23;1744566;82;21019;-60
2023/03/11 03:38:43;;;;;;;14.55;7.83;;;;;;;3.75;84.27;98588.73;1709730;84;21035;-60
2023/03/11 03:41:14;;;;;;;14.00;7.37;;;;;;;3.73;84.28;98581.31;1746996;82;21043;-60
2023/03/11 03:43:44;;;;;;;16.05;7.87;;;;;;;3.70;84.33;98576.30;1709748;84;21036;-60
2023/03/11 03:46:14;;;;;;;14.20;7.85;;;;;;;3.66;84.43;98567.73;1715343;82;21055;-61
2023/03/11 03:48:45;;;;;;;17.82;8.18;;;;;;;3.67;84.62;98565.34;1709334;84;21007;-60
2023/03/11 03:51:15;;;;;;;13.03;7.12;;;;;;;3.68;84.74;98551.29;1747092;82;21090;-61
2023/03/11 03:53:45;;;;;;;15.88;7.90;;;;;;;3.69;84.81;98551.09;1745268;82;21024;-61
2023/03/11 03:56:17;;;;;;;16.37;7.92;;;;;;;3.72;84.82;98547.98;1747002;82;21031;-61
2023/03/11 03:58:46;;;;;;;17.65;8.18;;;;;;;3.71;84.83;98544.13;1747109;82;21075;-61
2023/03/11 04:01:15;;;;;;;20.05;8.18;;;;;;;3.71;84.91;98544.13;1709053;84;21106;-61
2023/03/11 04:03:45;;;;;;;13.88;7.20;;;;;;;3.74;84.88;98541.84;1747043;82;21536;-60
2023/03/11 04:06:22;;;;;;;15.40;7.65;;;;;;;3.72;84.90;98534.95;1709523;83;21044;-60
2023/03/11 04:08:56;;;;;;;16.45;8.30;;;;;;;3.71;84.96;98538.70;1747062;82;21071;-60
2023/03/11 04:11:27;;;;;;;15.78;8.15;;;;;;;3.68;84.95;98525.56;1709227;83;21072;-60
2023/03/11 04:13:58;;;;;;;17.65;8.40;;;;;;;3.66;85.06;98525.77;1744535;82;21016;-60
2023/03/11 04:16:29;;;;;;;14.60;7.80;;;;;;;3.66;85.17;98523.58;1709255;84;21495;-61
2023/03/11 04:19:00;;;;;;;17.00;7.90;;;;;;;3.64;85.30;98512.94;1746818;82;21027;-62
2023/03/11 04:21:31;;;;;;;14.33;7.30;;;;;;;3.66;85.34;98508.68;1747297;82;21063;-59
2023/03/11 04:24:02;;;;;;;16.02;7.58;;;;;;;3.68;85.40;98514.21;1747478;82;21071;-60
2023/03/11 04:26:34;;;;;;;14.30;7.87;;;;;;;3.68;85.40;98506.61;1706485;84;21440;-60
2023/03/11 04:29:04;;;;;;;13.88;7.42;;;;;;;3.71;85.44;98496.21;1748417;82;21095;-61
2023/03/11 04:31:36;;;;;;;14.23;7.28;;;;;;;3.72;85.49;98490.27;1748141;82;21055;-60
2023/03/11 04:34:06;;;;;;;15.43;8.18;;;;;;;3.72;85.45;98484.86;1748506;82;21016;-60
2023/03/11 04:36:37;;;;;;;13.55;7.55;;;;;;;3.71;85.43;98484.54;1748467;82;21023;-60
2023/03/11 04:39:07;;;;;;;14.25;7.60;;;;;;;3.70;85.45;98489.64;1748587;82;21083;-61
2023/03/11 04:41:39;;;;;;;14.70;8.03;;;;;;;3.69;85.56;98479.84;1712666;84;21055;-60
2023/03/11 04:44:08;;;;;;;15.63;8.33;;;;;;;3.71;85.64;98483.19;1712973;84;21052;-60
2023/03/11 04:46:37;;;;;;;17.42;9.30;;;;;;;3.72;85.57;98480.28;1748671;82;21035;-60
2023/03/11 04:49:09;;;;;;;13.15;7.75;;;;;;;3.72;85.51;98481.63;1748443;82;21016;-59
2023/03/11 04:51:38;;;;;;;15.98;8.53;;;;;;;3.72;85.48;98477.57;1748443;82;21031;-62
2023/03/11 04:54:10;;;;;;;15.15;8.28;;;;;;;3.72;85.51;98475.38;1748447;82;21043;-61
2023/03/11 04:56:40;;;;;;;16.32;8.53;;;;;;;3.74;85.59;98469.24;1748382;82;21062;-61
2023/03/11 04:59:10;;;;;;;15.13;8.25;;;;;;;3.75;85.57;98464.14;1748528;82;21501;-60
2023/03/11 05:01:42;;;;;;;16.75;8.48;;;;;;;3.77;85.56;98457.48;1748402;82;21044;-58
2023/03/11 05:04:12;;;;;;;16.45;8.65;;;;;;;3.78;85.49;98450.20;1748528;82;21458;-61
2023/03/11 05:06:43;;;;;;;14.13;8.38;;;;;;;3.78;85.49;98455.09;1713000;83;21087;-59
2023/03/11 05:09:14;;;;;;;16.57;8.20;;;;;;;3.76;85.46;98440.09;1712796;84;21032;-60
2023/03/11 05:11:43;;;;;;;14.63;8.23;;;;;;;3.75;85.58;98435.70;1748650;82;21063;-60
2023/03/11 05:14:14;;;;;;;17.02;8.68;;;;;;;3.77;85.70;98429.57;1748622;82;21031;-60
2023/03/11 05:16:43;;;;;;;15.78;9.15;;;;;;;3.79;85.78;98432.91;1748439;82;21459;-60
2023/03/11 05:21:58;;;;;;;15.30;8.50;;;;;;;3.84;85.75;98420.95;1728216;82;21525;-59
2023/03/11 05:24:28;;;;;;;17.25;8.68;;;;;;;3.87;85.66;98420.55;1748575;82;20988;-61
2023/03/11 05:26:58;;;;;;;18.87;9.33;;;;;;;3.87;85.49;98415.13;1746211;81;21091;-58
2023/03/11 05:29:27;;;;;;;18.87;10.03;;;;;;;3.89;85.48;98413.56;1709152;84;21107;-60
2023/03/11 05:31:56;;;;;;;16.17;9.10;;;;;;;3.91;85.38;98410.17;1746990;82;21059;-60
2023/03/11 05:34:27;;;;;;;25.17;12.03;;;;;;;3.93;85.39;98397.25;1709328;84;21071;-60
2023/03/11 05:36:56;;;;;;;16.32;9.50;;;;;;;3.95;85.22;98397.36;1747232;82;21431;-61
2023/03/11 05:39:28;;;;;;;16.55;9.38;;;;;;;3.99;85.22;98399.14;1709130;83;21075;-60
2023/03/11 05:41:57;;;;;;;18.67;8.95;;;;;;;4.02;85.20;98391.44;1747050;82;21098;-60
2023/03/11 05:44:27;;;;;;;19.62;10.03;;;;;;;4.08;85.13;98396.55;1747298;82;21067;-60
2023/03/11 05:46:57;;;;;;;19.10;9.60;;;;;;;4.16;85.09;98396.88;1747331;82;21071;-60
2023/03/11 05:49:26;;;;;;;19.70;9.88;;;;;;;4.23;84.96;98392.31;1709186;83;21056;-61
2023/03/11 05:51:58;;;;;;;15.93;8.43;;;;;;;4.26;84.70;98395.44;1746876;82;21489;-60
2023/03/11 05:54:29;;;;;;;21.15;9.85;;;;;;;4.31;84.49;98391.59;1709300;84;21104;-61
2023/03/11 05:57:01;;;;;;;18.12;9.80;;;;;;;4.35;84.33;98393.36;1747024;82;20980;-61
2023/03/11 05:59:34;;;;;;;19.70;10.30;;;;;;;4.39;84.16;98398.69;1747255;82;21051;-59
2023/03/11 06:02:05;;;;;;;22.70;10.15;;;;;;;4.40;84.04;98386.80;1747022;82;21067;-59
2023/03/11 06:04:36;;;;;;;19.17;9.80;;;;;;;4.43;83.94;98385.03;1747059;82;21023;-60
2023/03/11 06:07:07;;;;;;;19.23;8.90;;;;;;;4.48;83.79;98383.88;1747009;82;21538;-61
2023/03/11 06:09:40;;;;;;;23.02;9.90;;;;;;;4.51;83.62;98379.92;1709366;83;21459;-61
2023/03/11 06:12:11;;;;;;;19.37;9.60;;;;;;;4.52;83.54;98388.37;1747159;82;21097;-61
2023/03/11 06:14:42;;;;;;;19.02;10.10;;;;;;;4.54;83.51;98382.22;1705226;84;21077;-61
2023/03/11 06:17:11;;;;;;;18.00;9.85;;;;;;;4.53;83.45;98371.05;1746972;82;21007;-61
2023/03/11 06:19:42;;;;;;;19.30;9.68;;;;;;;4.58;83.47;98376.72;1747085;82;21067;-61
2023/03/11 06:22:12;;;;;;;20.02;10.15;;;;;;;4.57;83.45;98370.46;1709433;84;21055;-61
2023/03/11 06:24:41;;;;;;;22.80;10.30;;;;;;;4.60;83.41;98365.14;1747031;82;21019;-62
2023/03/11 06:27:14;;;;;;;24.95;11.78;;;;;;;4.60;83.38;98363.27;1730531;82;21704;-62
2023/03/11 06:29:44;;;;;;;18.90;10.32;;;;;;;4.64;83.34;98365.03;1714389;84;21032;-62
2023/03/11 06:32:17;;;;;;;20.52;9.95;;;;;;;4.66;83.38;98354.81;1749891;82;21078;-62
2023/03/11 06:34:52;;;;;;;19.65;10.90;;;;;;;4.70;83.38;98360.95;1715921;83;20989;-61
2023/03/11 06:37:24;;;;;;;25.27;11.08;;;;;;;4.76;83.44;98357.41;1717615;84;20988;-62
2023/03/11 06:39:56;;;;;;;22.10;10.85;;;;;;;4.82;83.39;98350.83;1717612;84;21087;-60
2023/03/11 06:42:25;;;;;;;24.43;11.85;;;;;;;4.86;83.15;98348.83;1717612;84;21020;-60
2023/03/11 06:44:56;;;;;;;18.90;10.05;;;;;;;4.91;82.95;98345.48;1716172;84;21072;-61
2023/03/11 06:47:26;;;;;;;22.55;10.90;;;;;;;4.95;82.71;98339.95;1714605;84;21500;-61
2023/03/11 06:49:56;;;;;;;19.57;10.15;;;;;;;4.98;82.40;98336.80;1714478;84;21036;-60
2023/03/11 06:52:25;;;;;;;21.75;10.55;;;;;;;4.98;82.17;98336.80;1714470;84;21075;-60
2023/03/11 06:54:56;;;;;;;22.35;11.10;;;;;;;5.00;82.25;98330.13;1714612;84;21055;-60
2023/03/11 06:57:26;;;;;;;21.87;11.28;;;;;;;5.05;82.17;98319.98;1714288;84;21079;-62
2023/03/11 06:59:56;;;;;;;21.07;11.80;;;;;;;5.12;82.23;98318.08;1714700;84;21060;-61
2023/03/11 07:02:28;;;;;;;27.73;11.45;;;;;;;5.20;82.12;98313.80;1714538;84;21000;-61
2023/03/11 07:04:59;;;;;;;24.45;11.53;;;;;;;5.30;81.95;98306.56;1714798;84;21052;-61
2023/03/11 07:07:29;;;;;;;20.90;10.43;;;;;;;5.37;81.48;98301.41;1714422;84;21531;-60
2023/03/11 07:09:59;;;;;;;26.25;11.83;;;;;;;5.44;81.32;98291.04;1714357;83;21428;-61
2023/03/11 07:12:29;;;;;;;24.63;10.98;;;;;;;5.51;80.96;98287.77;1714606;84;21453;-62
2023/03/11 07:14:58;;;;;;;25.23;10.98;;;;;;;5.59;80.91;98288.88;1714654;84;20993;-61
2023/03/11 07:17:29;;;;;;;20.68;10.93;;;;;;;5.67;80.65;98287.25;1714301;84;21024;-62
2023/03/11 07:19:59;;;;;;;20.50;10.82;;;;;;;5.72;80.42;98287.43;1714322;84;21016;-62
2023/03/11 07:22:30;;;;;;;20.02;11.10;;;;;;;5.76;80.12;98290.02;1714582;84;21024;-62
2023/03/11 07:25:00;;;;;;;20.37;11.35;;;;;;;5.77;80.12;98283.53;1750302;82;21028;-61
2023/03/11 07:27:30;;;;;;;25.70;12.30;;;;;;;5.79;79.82;98283.31;1714440;82;21131;-61
2023/03/11 07:30:01;;;;;;;20.72;11.38;;;;;;;5.75;79.79;98281.56;1750263;82;20991;-60
2023/03/11 07:32:31;;;;;;;24.07;11.78;;;;;;;5.74;79.89;98281.25;1749961;82;21044;-61
2023/03/11 07:35:01;;;;;;;22.58;11.75;;;;;;;5.74;80.00;98278.54;1714283;84;20992;-62
2023/03/11 07:37:32;;;;;;;21.50;11.28;;;;;;;5.76;80.09;98275.08;1714612;84;21060;-61
2023/03/11 07:40:02;;;;;;;22.95;12.37;;;;;;;5.77;80.14;98266.40;1714510;84;21087;-63
2023/03/11 07:42:32;;;;;;;21.90;11.80;;;;;;;5.80;80.24;98267.31;1714552;84;21467;-61
2023/03/11 07:45:02;;;;;;;26.42;12.85;;;;;;;5.82;80.32;98259.25;1714339;84;20984;-61
2023/03/11 07:47:33;;;;;;;24.65;12.90;;;;;;;5.83;80.37;98254.13;1714390;84;21080;-61
2023/03/11 07:50:04;;;;;;;26.97;12.93;;;;;;;5.84;80.49;98250.36;1714293;84;21024;-60
2023/03/11 07:52:33;;;;;;;27.35;13.32;;;;;;;5.86;80.57;98242.84;1714500;84;21149;-61
2023/03/11 07:55:06;;;;;;;21.68;11.93;;;;;;;5.87;80.57;98228.20;1714523;84;21029;-62
2023/03/11 07:57:36;;;;;;;24.05;12.58;;;;;;;5.88;80.69;98223.08;1714677;84;21447;-61
2023/03/11 08:00:09;;;;;;;25.90;13.45;;;;;;;5.89;80.90;98218.48;1714420;84;21024;-61
2023/03/11 08:02:41;;;;;;;26.42;13.68;;;;;;;5.89;81.38;98217.98;1750190;82;21066;-60
2023/03/11 08:05:12;;;;;;;23.07;12.70;;;;;;;5.92;81.79;98209.39;1749909;82;21027;-60
2023/03/11 08:07:43;;;;;;;26.02;14.33;;;;;;;5.94;82.78;98199.12;1691956;84;21028;-66
2023/03/11 08:10:14;;;;;;;24.27;13.65;;;;;;;5.95;83.80;98197.24;1714482;84;21478;-61
2023/03/11 08:12:45;;;;;;;25.97;14.25;;;;;;;5.98;84.20;98200.88;1714145;84;21487;-61
2023/03/11 08:15:14;;;;;;;24.32;14.35;;;;;;;6.01;84.69;98196.35;1714240;84;21553;-59
2023/03/11 08:17:45;;;;;;;27.40;14.15;;;;;;;6.04;85.09;98187.75;1714193;83;21071;-61
2023/03/11 08:20:16;;;;;;;24.25;13.45;;;;;;;6.10;85.37;98172.44;1714025;84;21062;-61
2023/03/11 08:22:46;;;;;;;23.95;12.80;;;;;;;6.13;85.42;98165.19;1714085;82;21106;-61
2023/03/11 08:25:17;;;;;;;23.95;12.03;;;;;;;6.16;85.47;98160.66;1721887;82;21098;-60
2023/03/11 08:27:47;;;;;;;24.07;12.33;;;;;;;6.14;85.34;98151.38;1726191;82;21048;-60
2023/03/11 08:30:16;;;;;;;26.20;12.75;;;;;;;6.11;85.45;98164.58;1753689;81;20995;-61
2023/03/11 08:32:48;;;;;;;22.80;12.33;;;;;;;6.09;85.56;98162.09;1775053;81;21497;-62
2023/03/11 08:35:19;;;;;;;24.77;13.00;;;;;;;6.12;85.79;98152.66;1774971;81;21079;-61
2023/03/11 08:37:49;;;;;;;22.42;12.70;;;;;;;6.17;86.06;98152.81;1775159;81;21057;-60
2023/03/11 08:40:18;;;;;;;27.00;12.95;;;;;;;6.22;86.38;98148.36;1738563;82;21060;-61
2023/03/11 08:42:48;;;;;;;23.80;12.85;;;;;;;6.29;86.66;98142.33;1775140;81;21052;-61
2023/03/11 08:45:18;;;;;;;24.98;11.78;;;;;;;6.34;86.69;98137.57;1775242;81;21063;-60
2023/03/11 08:47:48;;;;;;;24.75;13.88;;;;;;;6.36;86.84;98146.33;1774993;81;21027;-61
2023/03/11 08:50:18;;;;;;;23.22;12.50;;;;;;;6.38;87.02;98153.73;1738278;82;21056;-60
2023/03/11 08:52:48;;;;;;;26.12;12.60;;;;;;;6.41;87.35;98138.33;1770014;81;21091;-61
2023/03/11 08:55:23;;;;;;;23.75;13.03;;;;;;;6.42;87.54;98137.80;1750031;81;21051;-61
2023/03/11 08:57:48;;;;;;;22.32;11.97;;;;;;;6.41;87.86;98135.61;1744222;81;21053;-61
2023/03/11 09:00:20;;;;;;;24.30;13.10;;;;;;;6.36;88.48;98129.48;1744388;81;21029;-61
2023/03/11 09:02:49;;;;;;;26.02;13.58;;;;;;;6.32;88.82;98129.64;1744425;82;21080;-62
2023/03/11 09:05:19;;;;;;;25.82;12.63;;;;;;;6.29;89.25;98134.70;1744149;82;21030;-63
2023/03/11 09:07:50;;;;;;;23.42;12.60;;;;;;;6.27;89.69;98135.45;1661981;86;21598;-62
2023/03/11 09:10:20;;;;;;;27.67;13.75;;;;;;;6.26;90.11;98129.19;1661790;86;21068;-63
2023/03/11 09:12:49;;;;;;;23.62;12.98;;;;;;;6.26;90.38;98113.40;1681068;85;21063;-63
2023/03/11 09:15:20;;;;;;;26.33;14.47;;;;;;;6.25;90.71;98114.45;1689823;85;21468;-62
2023/03/11 09:17:49;;;;;;;26.45;14.13;;;;;;;6.26;90.97;98114.23;1689987;85;21525;-63
2023/03/11 09:20:21;;;;;;;28.42;14.43;;;;;;;6.27;91.31;98100.10;1689677;85;21055;-63
2023/03/11 09:22:50;;;;;;;28.80;15.05;;;;;;;6.27;91.66;98096.03;1689839;85;21098;-64
2023/03/11 09:25:20;;;;;;;25.62;13.50;;;;;;;6.29;92.00;98098.82;1708752;81;21119;-64
2023/03/11 09:27:50;;;;;;;27.07;15.10;;;;;;;6.31;92.36;98093.16;1770283;81;21079;-65
2023/03/11 09:30:19;;;;;;;24.20;12.50;;;;;;;6.31;92.50;98085.00;1754366;81;21482;-62
2023/03/11 09:32:49;;;;;;;24.63;14.35;;;;;;;6.30;92.51;98090.13;1753035;82;21067;-63
2023/03/11 09:35:19;;;;;;;26.62;14.90;;;;;;;6.21;92.12;98083.34;1752960;81;21412;-60
2023/03/11 09:37:50;;;;;;;28.65;15.10;;;;;;;6.16;92.46;98085.91;1753031;82;21040;-60
2023/03/11 09:40:21;;;;;;;27.50;14.30;;;;;;;6.13;92.73;98074.13;1753222;81;21456;-62
2023/03/11 09:43:07;;;;;;;29.12;14.93;;;;;;;6.14;93.02;98058.11;1753278;81;21060;-63
2023/03/11 09:45:40;;;;;;;32.17;17.10;;;;;;;6.08;93.03;98063.93;1753142;81;21461;-61
2023/03/11 09:48:24;;;;;;;34.40;17.60;;;;;;;6.04;93.50;98060.00;1752946;81;21043;-63
2023/03/11 09:50:58;;;;;;;43.05;22.60;;;;;;;6.02;93.80;98052.60;1753099;82;21476;-63
2023/03/11 09:53:41;;;;;;;41.28;24.20;;;;;;;5.99;93.97;98033.50;1752942;81;21064;-62
2023/03/11 09:56:13;;;;;;;37.45;21.42;;;;;;;5.95;94.08;98018.70;1752917;82;21020;-61
2023/03/11 09:59:00;;;;;;;46.08;25.70;;;;;;;5.91;94.28;98017.50;1726636;82;21044;-62
2023/03/11 10:01:41;;;;;;;42.17;22.20;;;;;;;5.88;94.46;98016.56;1753162;81;21092;-60
2023/03/11 10:04:33;;;;;;;48.33;25.37;;;;;;;5.87;94.52;98012.71;1760371;81;21052;-62
2023/03/11 10:07:06;;;;;;;47.90;26.48;;;;;;;5.83;94.69;98007.39;1763046;81;21020;-63
2023/03/11 10:09:47;;;;;;;50.70;27.55;;;;;;;5.83;94.98;97998.72;1763405;81;21063;-61
2023/03/11 10:12:46;;;;;;;54.65;28.00;;;;;;;5.88;95.17;97988.56;1765798;81;21171;-61
2023/03/11 10:15:40;;;;;;;;;;;;;;;5.88;95.28;97989.92;1768215;81;21034;-61
2023/03/11 10:18:28;;;;;;;54.20;27.15;;;;;;;5.85;95.58;97987.62;1755424;81;20475;-61
2023/03/11 10:21:04;;;;;;;53.55;28.30;;;;;;;5.80;95.75;97977.43;1750539;82;21031;-62
2023/03/11 10:23:38;;;;;;;57.93;29.75;;;;;;;5.79;95.97;97985.81;1750312;81;21063;-62
2023/03/11 10:26:41;;;;;;;56.50;29.70;;;;;;;5.77;96.27;97983.31;1747809;82;21098;-62
2023/03/11 10:29:28;;;;;;;55.43;29.45;;;;;;;5.80;96.59;97982.03;1752085;82;21462;-62
2023/03/11 10:32:02;;;;;;;44.67;24.00;;;;;;;5.82;96.96;97967.17;1693281;82;21579;-62
2023/03/11 10:34:45;;;;;;;44.55;23.98;;;;;;;5.86;97.23;97967.05;1702633;84;20988;-62
2023/03/11 10:37:27;;;;;;;41.45;24.10;;;;;;;5.85;97.31;97958.59;1753061;82;21054;-59
2023/03/11 10:40:09;;;;;;;39.00;21.73;;;;;;;5.86;97.48;97956.17;1749902;82;21054;-61
2023/03/11 10:42:39;;;;;;;40.65;22.22;;;;;;;5.86;97.68;97961.61;1751952;82;21090;-62
2023/03/11 10:45:13;;;;;;;37.70;21.62;;;;;;;5.90;98.05;97953.34;1753084;82;21083;-60
2023/03/11 10:47:44;;;;;;;41.77;23.07;;;;;;;5.91;98.21;97944.13;1753135;82;21019;-61
2023/03/11 10:50:16;;;;;;;35.15;21.02;;;;;;;5.92;98.32;97940.35;1753304;82;21046;-61
2023/03/11 10:53:07;;;;;;;39.78;21.42;;;;;;;5.92;98.44;97940.88;1753065;82;21023;-62
2023/03/11 10:55:47;;;;;;;35.95;20.92;;;;;;;5.91;98.54;97931.90;1752978;82;21067;-60
2023/03/11 10:58:22;;;;;;;37.45;21.10;;;;;;;5.89;98.56;97923.15;1753286;82;21090;-61
2023/03/11 11:01:03;;;;;;;37.15;20.65;;;;;;;5.87;98.63;97917.61;1753061;82;21078;-61
2023/03/11 11:03:32;;;;;;;39.23;21.37;;;;;;;5.88;98.90;97905.69;1767932;80;21067;-60
2023/03/11 11:06:06;;;;;;;40.23;20.95;;;;;;;5.89;99.07;97893.26;1783908;80;21478;-60
2023/03/11 11:08:35;;;;;;;38.85;22.17;;;;;;;5.91;99.27;97894.39;1783995;80;21415;-59
2023/03/11 11:11:11;;;;;;;41.63;22.65;;;;;;;5.87;99.47;97887.19;1784113;80;21004;-61
2023/03/11 11:13:44;;;;;;;39.10;21.70;;;;;;;5.88;99.75;97887.49;1758568;80;20991;-60
2023/03/11 11:16:19;;;;;;;37.55;20.97;;;;;;;5.90;100.00;97875.90;1710092;80;21102;-61
2023/03/11 11:19:03;;;;;;;29.18;16.77;;;;;;;5.90;100.00;97866.39;1784086;80;21446;-60
2023/03/11 11:21:47;;;;;;;39.60;22.22;;;;;;;5.89;100.00;97872.02;1783167;80;21011;-60
2023/03/11 11:24:28;;;;;;;40.35;22.58;;;;;;;5.91;100.00;97865.33;1783985;80;21410;-59
2023/03/11 11:27:22;;;;;;;44.77;22.22;;;;;;;5.94;100.00;97864.03;1783899;80;21454;-61
2023/03/11 11:30:14;;;;;;;38.60;21.02;;;;;;;5.96;100.00;97862.75;1741508;80;21076;-61
2023/03/11 11:32:45;;;;;;;43.85;23.55;;;;;;;6.00;100.00;97853.08;1712416;82;21069;-61
2023/03/11 11:35:16;;;;;;;36.88;19.65;;;;;;;6.04;100.00;97852.91;1740605;82;21081;-60
2023/03/11 11:37:52;;;;;;;39.88;22.17;;;;;;;6.07;100.00;97844.82;1740580;82;21433;-61
2023/03/11 11:40:27;;;;;;;35.48;19.85;;;;;;;6.09;100.00;97845.42;1740355;82;21033;-61
2023/03/11 11:43:04;;;;;;;;;;;;;;;6.11;100.00;97841.94;1742864;82;21029;-60
2023/03/11 11:45:42;;;;;;;40.40;22.07;;;;;;;6.14;100.00;97839.29;1740442;82;20201;-59
2023/03/11 11:48:22;;;;;;;40.65;21.73;;;;;;;6.20;100.00;97835.64;1740270;82;21033;-59
2023/03/11 11:50:54;;;;;;;39.73;21.62;;;;;;;6.22;100.00;97833.52;1740702;82;21413;-60
2023/03/11 11:53:40;;;;;;;38.30;21.23;;;;;;;6.21;100.00;97829.14;1740258;82;21029;-60
2023/03/11 11:56:11;;;;;;;42.70;21.75;;;;;;;6.20;100.00;97828.31;1740545;82;21041;-61